sensor_id;sensor_type;location;lat;lon;timestamp;P1;durP1;ratioP1;P2;durP2;ratioP2
57317;SDS011;43157;50.982;18.132;2023-02-07T00:00:47;186.00;;;56.30;;
57317;SDS011;43157;50.982;18.132;2023-02-07T00:03:12;195.20;;;64.70;;
57317;SDS011;43157;50.982;18.132;2023-02-07T00:05:38;187.30;;;60.20;;
57317;SDS011;43157;50.982;18.132;2023-02-07T00:08:05;196.10;;;64.10;;
57317;SDS011;43157;50.982;18.132;2023-02-07T00:10:32;189.20;;;60.20;;
57317;SDS011;43157;50.982;18.132;2023-02-07T00:13:01;204.20;;;64.70;;
57317;SDS011;43157;50.982;18.132;2023-02-07T00:15:26;197.60;;;62.30;;
57317;SDS011;43157;50.982;18.132;2023-02-07T00:17:52;197.50;;;62.40;;
57317;SDS011;43157;50.982;18.132;2023-02-07T00:20:18;337.60;;;116.00;;
57317;SDS011;43157;50.982;18.132;2023-02-07T00:22:45;275.80;;;99.60;;
57317;SDS011;43157;50.982;18.132;2023-02-07T00:25:11;256.50;;;85.00;;
57317;SDS011;43157;50.982;18.132;2023-02-07T00:27:36;199.90;;;63.20;;
57317;SDS011;43157;50.982;18.132;2023-02-07T00:30:03;214.60;;;71.10;;
57317;SDS011;43157;50.982;18.132;2023-02-07T00:32:33;222.50;;;68.00;;
57317;SDS011;43157;50.982;18.132;2023-02-07T00:34:59;215.80;;;66.50;;
57317;SDS011;43157;50.982;18.132;2023-02-07T00:37:25;191.20;;;60.20;;
57317;SDS011;43157;50.982;18.132;2023-02-07T00:39:51;205.40;;;62.80;;
57317;SDS011;43157;50.982;18.132;2023-02-07T00:42:17;203.20;;;60.50;;
57317;SDS011;43157;50.982;18.132;2023-02-07T00:44:43;196.50;;;65.10;;
57317;SDS011;43157;50.982;18.132;2023-02-07T00:47:08;197.90;;;61.80;;
57317;SDS011;43157;50.982;18.132;2023-02-07T00:49:34;202.40;;;62.70;;
57317;SDS011;43157;50.982;18.132;2023-02-07T00:52:00;205.50;;;63.50;;
57317;SDS011;43157;50.982;18.132;2023-02-07T00:54:26;210.90;;;67.10;;
57317;SDS011;43157;50.982;18.132;2023-02-07T00:56:52;210.80;;;65.00;;
57317;SDS011;43157;50.982;18.132;2023-02-07T00:59:17;207.40;;;66.00;;
57317;SDS011;43157;50.982;18.132;2023-02-07T01:01:43;214.60;;;62.30;;
57317;SDS011;43157;50.982;18.132;2023-02-07T01:04:08;214.50;;;65.10;;
57317;SDS011;43157;50.982;18.132;2023-02-07T01:06:34;235.90;;;68.40;;
57317;SDS011;43157;50.982;18.132;2023-02-07T01:09:02;326.20;;;87.00;;
57317;SDS011;43157;50.982;18.132;2023-02-07T01:11:29;255.30;;;73.90;;
57317;SDS011;43157;50.982;18.132;2023-02-07T01:13:54;234.70;;;66.30;;
57317;SDS011;43157;50.982;18.132;2023-02-07T01:16:24;228.30;;;68.10;;
57317;SDS011;43157;50.982;18.132;2023-02-07T01:18:51;204.60;;;62.00;;
57317;SDS011;43157;50.982;18.132;2023-02-07T01:21:22;204.30;;;64.70;;
57317;SDS011;43157;50.982;18.132;2023-02-07T01:23:49;250.40;;;69.00;;
57317;SDS011;43157;50.982;18.132;2023-02-07T01:26:15;281.70;;;76.20;;
57317;SDS011;43157;50.982;18.132;2023-02-07T01:28:41;255.80;;;74.30;;
57317;SDS011;43157;50.982;18.132;2023-02-07T01:31:08;224.90;;;65.60;;
57317;SDS011;43157;50.982;18.132;2023-02-07T01:33:35;246.50;;;75.30;;
57317;SDS011;43157;50.982;18.132;2023-02-07T01:36:20;265.40;;;77.50;;
57317;SDS011;43157;50.982;18.132;2023-02-07T01:38:45;250.00;;;74.00;;
57317;SDS011;43157;50.982;18.132;2023-02-07T01:41:11;247.00;;;75.40;;
57317;SDS011;43157;50.982;18.132;2023-02-07T01:46:31;214.30;;;61.50;;
57317;SDS011;43157;50.982;18.132;2023-02-07T01:49:02;193.80;;;63.50;;
57317;SDS011;43157;50.982;18.132;2023-02-07T01:51:30;171.20;;;58.20;;
57317;SDS011;43157;50.982;18.132;2023-02-07T01:53:58;176.90;;;56.10;;
57317;SDS011;43157;50.982;18.132;2023-02-07T01:56:27;174.60;;;57.90;;
57317;SDS011;43157;50.982;18.132;2023-02-07T01:58:53;181.70;;;57.70;;
57317;SDS011;43157;50.982;18.132;2023-02-07T02:01:22;178.20;;;55.60;;
57317;SDS011;43157;50.982;18.132;2023-02-07T02:03:49;189.10;;;57.70;;
57317;SDS011;43157;50.982;18.132;2023-02-07T02:06:16;191.70;;;56.30;;
57317;SDS011;43157;50.982;18.132;2023-02-07T02:08:43;173.00;;;57.60;;
57317;SDS011;43157;50.982;18.132;2023-02-07T02:11:26;179.70;;;58.40;;
57317;SDS011;43157;50.982;18.132;2023-02-07T02:14:17;172.60;;;55.60;;
57317;SDS011;43157;50.982;18.132;2023-02-07T02:28:10;429.00;;;118.20;;
57317;SDS011;43157;50.982;18.132;2023-02-07T02:36:26;257.60;;;70.70;;
57317;SDS011;43157;50.982;18.132;2023-02-07T02:39:16;231.60;;;69.50;;
57317;SDS011;43157;50.982;18.132;2023-02-07T02:41:57;224.90;;;66.60;;
57317;SDS011;43157;50.982;18.132;2023-02-07T02:44:33;259.10;;;71.80;;
57317;SDS011;43157;50.982;18.132;2023-02-07T02:47:05;185.00;;;61.10;;
57317;SDS011;43157;50.982;18.132;2023-02-07T02:49:32;228.30;;;73.10;;
57317;SDS011;43157;50.982;18.132;2023-02-07T02:51:58;196.00;;;62.50;;
57317;SDS011;43157;50.982;18.132;2023-02-07T02:59:55;137.70;;;46.40;;
57317;SDS011;43157;50.982;18.132;2023-02-07T03:08:53;123.80;;;42.60;;
57317;SDS011;43157;50.982;18.132;2023-02-07T03:11:25;132.70;;;46.20;;
57317;SDS011;43157;50.982;18.132;2023-02-07T03:16:25;134.00;;;45.50;;
57317;SDS011;43157;50.982;18.132;2023-02-07T03:18:57;137.00;;;45.40;;
57317;SDS011;43157;50.982;18.132;2023-02-07T03:21:35;146.00;;;49.50;;
57317;SDS011;43157;50.982;18.132;2023-02-07T03:24:05;156.60;;;45.00;;
57317;SDS011;43157;50.982;18.132;2023-02-07T03:26:34;159.80;;;49.60;;
57317;SDS011;43157;50.982;18.132;2023-02-07T03:29:00;138.60;;;45.40;;
57317;SDS011;43157;50.982;18.132;2023-02-07T03:31:27;175.20;;;50.50;;
57317;SDS011;43157;50.982;18.132;2023-02-07T03:33:56;134.20;;;44.70;;
57317;SDS011;43157;50.982;18.132;2023-02-07T03:36:30;115.80;;;39.90;;
57317;SDS011;43157;50.982;18.132;2023-02-07T03:38:58;130.40;;;43.00;;
57317;SDS011;43157;50.982;18.132;2023-02-07T03:41:32;124.50;;;38.40;;
57317;SDS011;43157;50.982;18.132;2023-02-07T03:44:04;122.90;;;35.90;;
57317;SDS011;43157;50.982;18.132;2023-02-07T03:46:33;127.30;;;38.40;;
57317;SDS011;43157;50.982;18.132;2023-02-07T03:49:01;122.10;;;38.40;;
57317;SDS011;43157;50.982;18.132;2023-02-07T03:51:27;139.80;;;43.70;;
57317;SDS011;43157;50.982;18.132;2023-02-07T03:53:53;127.60;;;43.10;;
57317;SDS011;43157;50.982;18.132;2023-02-07T03:56:18;121.80;;;40.30;;
57317;SDS011;43157;50.982;18.132;2023-02-07T03:58:44;118.40;;;40.00;;
57317;SDS011;43157;50.982;18.132;2023-02-07T04:01:09;115.70;;;38.10;;
57317;SDS011;43157;50.982;18.132;2023-02-07T04:03:35;121.50;;;41.90;;
57317;SDS011;43157;50.982;18.132;2023-02-07T04:06:00;115.90;;;39.30;;
57317;SDS011;43157;50.982;18.132;2023-02-07T04:08:26;124.10;;;41.00;;
57317;SDS011;43157;50.982;18.132;2023-02-07T04:10:55;126.90;;;43.50;;
57317;SDS011;43157;50.982;18.132;2023-02-07T04:13:22;128.10;;;42.80;;
57317;SDS011;43157;50.982;18.132;2023-02-07T04:15:48;127.10;;;42.60;;
57317;SDS011;43157;50.982;18.132;2023-02-07T04:18:13;129.80;;;41.00;;
57317;SDS011;43157;50.982;18.132;2023-02-07T04:20:39;130.40;;;41.30;;
57317;SDS011;43157;50.982;18.132;2023-02-07T04:23:05;241.10;;;65.60;;
57317;SDS011;43157;50.982;18.132;2023-02-07T04:25:30;127.20;;;41.50;;
57317;SDS011;43157;50.982;18.132;2023-02-07T04:27:56;133.80;;;43.20;;
57317;SDS011;43157;50.982;18.132;2023-02-07T04:30:21;107.80;;;37.90;;
57317;SDS011;43157;50.982;18.132;2023-02-07T04:32:47;126.30;;;39.60;;
57317;SDS011;43157;50.982;18.132;2023-02-07T04:35:13;138.30;;;43.10;;
57317;SDS011;43157;50.982;18.132;2023-02-07T04:37:38;117.70;;;39.60;;
57317;SDS011;43157;50.982;18.132;2023-02-07T04:40:07;142.80;;;47.10;;
57317;SDS011;43157;50.982;18.132;2023-02-07T04:42:33;131.60;;;43.40;;
57317;SDS011;43157;50.982;18.132;2023-02-07T04:44:59;137.30;;;46.00;;
57317;SDS011;43157;50.982;18.132;2023-02-07T04:47:24;124.50;;;41.70;;
57317;SDS011;43157;50.982;18.132;2023-02-07T04:49:50;128.00;;;40.70;;
57317;SDS011;43157;50.982;18.132;2023-02-07T04:52:15;113.80;;;37.70;;
57317;SDS011;43157;50.982;18.132;2023-02-07T04:54:41;104.60;;;37.10;;
57317;SDS011;43157;50.982;18.132;2023-02-07T04:57:06;135.70;;;41.10;;
57317;SDS011;43157;50.982;18.132;2023-02-07T04:59:32;111.60;;;36.80;;
57317;SDS011;43157;50.982;18.132;2023-02-07T05:14:30;133.70;;;47.80;;
57317;SDS011;43157;50.982;18.132;2023-02-07T05:16:56;128.80;;;46.10;;
57317;SDS011;43157;50.982;18.132;2023-02-07T05:19:22;126.20;;;43.60;;
57317;SDS011;43157;50.982;18.132;2023-02-07T05:21:48;130.30;;;42.00;;
57317;SDS011;43157;50.982;18.132;2023-02-07T05:24:13;137.80;;;45.40;;
57317;SDS011;43157;50.982;18.132;2023-02-07T05:26:39;119.80;;;42.40;;
57317;SDS011;43157;50.982;18.132;2023-02-07T05:29:04;130.20;;;46.20;;
57317;SDS011;43157;50.982;18.132;2023-02-07T05:31:30;112.60;;;38.70;;
57317;SDS011;43157;50.982;18.132;2023-02-07T05:34:14;121.40;;;44.60;;
57317;SDS011;43157;50.982;18.132;2023-02-07T05:36:40;113.40;;;40.70;;
57317;SDS011;43157;50.982;18.132;2023-02-07T05:39:05;125.10;;;43.70;;
57317;SDS011;43157;50.982;18.132;2023-02-07T05:41:31;121.90;;;43.30;;
57317;SDS011;43157;50.982;18.132;2023-02-07T05:43:57;105.60;;;39.40;;
57317;SDS011;43157;50.982;18.132;2023-02-07T05:46:23;112.20;;;37.40;;
57317;SDS011;43157;50.982;18.132;2023-02-07T05:48:48;125.40;;;42.30;;
57317;SDS011;43157;50.982;18.132;2023-02-07T05:51:14;124.20;;;41.10;;
57317;SDS011;43157;50.982;18.132;2023-02-07T05:53:40;125.40;;;42.70;;
57317;SDS011;43157;50.982;18.132;2023-02-07T05:56:06;126.90;;;44.20;;
57317;SDS011;43157;50.982;18.132;2023-02-07T05:58:31;132.60;;;41.10;;
57317;SDS011;43157;50.982;18.132;2023-02-07T06:00:57;119.80;;;38.60;;
57317;SDS011;43157;50.982;18.132;2023-02-07T06:03:23;130.10;;;42.00;;
57317;SDS011;43157;50.982;18.132;2023-02-07T06:05:48;117.90;;;40.40;;
57317;SDS011;43157;50.982;18.132;2023-02-07T06:08:14;142.70;;;56.00;;
57317;SDS011;43157;50.982;18.132;2023-02-07T06:10:40;166.70;;;60.10;;
57317;SDS011;43157;50.982;18.132;2023-02-07T06:13:05;178.50;;;59.60;;
57317;SDS011;43157;50.982;18.132;2023-02-07T06:15:31;159.80;;;55.70;;
57317;SDS011;43157;50.982;18.132;2023-02-07T06:17:57;134.00;;;46.70;;
57317;SDS011;43157;50.982;18.132;2023-02-07T06:20:22;116.00;;;42.50;;
57317;SDS011;43157;50.982;18.132;2023-02-07T06:22:48;140.70;;;48.70;;
57317;SDS011;43157;50.982;18.132;2023-02-07T06:25:14;131.90;;;45.10;;
57317;SDS011;43157;50.982;18.132;2023-02-07T06:27:42;119.00;;;44.00;;
57317;SDS011;43157;50.982;18.132;2023-02-07T06:30:09;112.50;;;41.70;;
57317;SDS011;43157;50.982;18.132;2023-02-07T06:32:36;119.00;;;43.20;;
57317;SDS011;43157;50.982;18.132;2023-02-07T06:35:01;130.30;;;45.10;;
57317;SDS011;43157;50.982;18.132;2023-02-07T06:37:27;157.20;;;49.70;;
57317;SDS011;43157;50.982;18.132;2023-02-07T06:39:53;161.00;;;51.50;;
57317;SDS011;43157;50.982;18.132;2023-02-07T06:42:19;147.60;;;54.80;;
57317;SDS011;43157;50.982;18.132;2023-02-07T06:44:45;136.00;;;50.00;;
57317;SDS011;43157;50.982;18.132;2023-02-07T06:47:10;129.60;;;50.00;;
57317;SDS011;43157;50.982;18.132;2023-02-07T06:49:36;124.50;;;42.30;;
57317;SDS011;43157;50.982;18.132;2023-02-07T06:52:02;111.80;;;37.30;;
57317;SDS011;43157;50.982;18.132;2023-02-07T06:54:27;110.90;;;41.40;;
57317;SDS011;43157;50.982;18.132;2023-02-07T06:56:53;124.90;;;44.90;;
57317;SDS011;43157;50.982;18.132;2023-02-07T06:59:19;110.00;;;38.90;;
57317;SDS011;43157;50.982;18.132;2023-02-07T07:01:44;129.20;;;44.30;;
57317;SDS011;43157;50.982;18.132;2023-02-07T07:04:10;134.90;;;46.00;;
57317;SDS011;43157;50.982;18.132;2023-02-07T07:06:36;139.10;;;46.70;;
57317;SDS011;43157;50.982;18.132;2023-02-07T07:09:02;156.70;;;50.30;;
57317;SDS011;43157;50.982;18.132;2023-02-07T07:11:28;209.40;;;64.10;;
57317;SDS011;43157;50.982;18.132;2023-02-07T07:13:53;192.10;;;63.60;;
57317;SDS011;43157;50.982;18.132;2023-02-07T07:16:19;185.20;;;58.90;;
57317;SDS011;43157;50.982;18.132;2023-02-07T07:18:45;205.80;;;63.00;;
57317;SDS011;43157;50.982;18.132;2023-02-07T07:21:10;141.30;;;48.20;;
57317;SDS011;43157;50.982;18.132;2023-02-07T07:23:37;150.30;;;51.70;;
57317;SDS011;43157;50.982;18.132;2023-02-07T07:26:02;148.90;;;51.90;;
57317;SDS011;43157;50.982;18.132;2023-02-07T07:28:28;152.90;;;50.50;;
57317;SDS011;43157;50.982;18.132;2023-02-07T07:30:54;172.70;;;57.10;;
57317;SDS011;43157;50.982;18.132;2023-02-07T07:33:20;301.40;;;83.00;;
57317;SDS011;43157;50.982;18.132;2023-02-07T07:35:46;165.90;;;56.20;;
57317;SDS011;43157;50.982;18.132;2023-02-07T07:38:11;160.80;;;51.30;;
57317;SDS011;43157;50.982;18.132;2023-02-07T07:40:37;153.90;;;50.00;;
57317;SDS011;43157;50.982;18.132;2023-02-07T07:43:02;147.20;;;51.20;;
57317;SDS011;43157;50.982;18.132;2023-02-07T07:45:28;156.70;;;52.10;;
57317;SDS011;43157;50.982;18.132;2023-02-07T07:47:54;168.30;;;55.40;;
57317;SDS011;43157;50.982;18.132;2023-02-07T07:50:19;153.20;;;51.90;;
57317;SDS011;43157;50.982;18.132;2023-02-07T07:52:45;149.90;;;51.10;;
57317;SDS011;43157;50.982;18.132;2023-02-07T07:55:11;170.60;;;53.90;;
57317;SDS011;43157;50.982;18.132;2023-02-07T07:57:37;154.20;;;55.20;;
57317;SDS011;43157;50.982;18.132;2023-02-07T08:00:04;150.30;;;51.90;;
57317;SDS011;43157;50.982;18.132;2023-02-07T08:02:30;132.20;;;47.90;;
57317;SDS011;43157;50.982;18.132;2023-02-07T08:04:56;112.60;;;40.60;;
57317;SDS011;43157;50.982;18.132;2023-02-07T08:07:22;126.30;;;44.50;;
57317;SDS011;43157;50.982;18.132;2023-02-07T08:09:48;122.20;;;44.30;;
57317;SDS011;43157;50.982;18.132;2023-02-07T08:12:13;136.30;;;46.80;;
57317;SDS011;43157;50.982;18.132;2023-02-07T08:14:39;137.40;;;50.60;;
57317;SDS011;43157;50.982;18.132;2023-02-07T08:17:05;151.00;;;53.10;;
57317;SDS011;43157;50.982;18.132;2023-02-07T08:19:30;152.30;;;47.90;;
57317;SDS011;43157;50.982;18.132;2023-02-07T08:21:56;142.30;;;48.90;;
57317;SDS011;43157;50.982;18.132;2023-02-07T08:24:21;112.60;;;39.90;;
57317;SDS011;43157;50.982;18.132;2023-02-07T08:26:47;115.00;;;42.60;;
57317;SDS011;43157;50.982;18.132;2023-02-07T08:29:13;117.90;;;43.90;;
57317;SDS011;43157;50.982;18.132;2023-02-07T08:31:39;143.30;;;54.70;;
57317;SDS011;43157;50.982;18.132;2023-02-07T08:34:04;119.80;;;44.80;;
57317;SDS011;43157;50.982;18.132;2023-02-07T08:36:30;135.20;;;47.60;;
57317;SDS011;43157;50.982;18.132;2023-02-07T08:38:56;148.30;;;50.90;;
57317;SDS011;43157;50.982;18.132;2023-02-07T08:41:21;183.70;;;68.30;;
57317;SDS011;43157;50.982;18.132;2023-02-07T08:43:47;197.60;;;67.30;;
57317;SDS011;43157;50.982;18.132;2023-02-07T08:46:14;202.10;;;68.40;;
57317;SDS011;43157;50.982;18.132;2023-02-07T08:48:39;156.70;;;53.50;;
57317;SDS011;43157;50.982;18.132;2023-02-07T08:51:06;141.50;;;51.50;;
57317;SDS011;43157;50.982;18.132;2023-02-07T08:53:32;140.90;;;49.90;;
57317;SDS011;43157;50.982;18.132;2023-02-07T08:55:58;136.60;;;50.10;;
57317;SDS011;43157;50.982;18.132;2023-02-07T08:58:23;132.00;;;51.00;;
57317;SDS011;43157;50.982;18.132;2023-02-07T09:00:49;126.60;;;47.20;;
57317;SDS011;43157;50.982;18.132;2023-02-07T09:03:15;131.70;;;48.90;;
57317;SDS011;43157;50.982;18.132;2023-02-07T09:05:41;162.30;;;53.20;;
57317;SDS011;43157;50.982;18.132;2023-02-07T09:08:07;115.80;;;43.80;;
57317;SDS011;43157;50.982;18.132;2023-02-07T09:10:32;105.10;;;38.30;;
57317;SDS011;43157;50.982;18.132;2023-02-07T09:12:58;105.50;;;37.30;;
57317;SDS011;43157;50.982;18.132;2023-02-07T09:15:24;104.60;;;36.40;;
57317;SDS011;43157;50.982;18.132;2023-02-07T09:17:50;112.70;;;44.50;;
57317;SDS011;43157;50.982;18.132;2023-02-07T09:20:16;137.20;;;52.10;;
57317;SDS011;43157;50.982;18.132;2023-02-07T09:22:42;137.40;;;52.50;;
57317;SDS011;43157;50.982;18.132;2023-02-07T09:25:27;133.40;;;49.60;;
57317;SDS011;43157;50.982;18.132;2023-02-07T09:27:53;153.10;;;59.10;;
57317;SDS011;43157;50.982;18.132;2023-02-07T09:30:20;159.40;;;60.40;;
57317;SDS011;43157;50.982;18.132;2023-02-07T09:32:46;167.30;;;65.10;;
57317;SDS011;43157;50.982;18.132;2023-02-07T09:35:11;183.00;;;66.90;;
57317;SDS011;43157;50.982;18.132;2023-02-07T09:37:37;160.60;;;58.50;;
57317;SDS011;43157;50.982;18.132;2023-02-07T09:40:03;135.90;;;50.00;;
57317;SDS011;43157;50.982;18.132;2023-02-07T09:42:32;152.70;;;54.60;;
57317;SDS011;43157;50.982;18.132;2023-02-07T09:45:03;139.30;;;51.60;;
57317;SDS011;43157;50.982;18.132;2023-02-07T09:47:35;183.70;;;61.50;;
57317;SDS011;43157;50.982;18.132;2023-02-07T09:50:07;146.90;;;51.60;;
57317;SDS011;43157;50.982;18.132;2023-02-07T09:52:43;116.50;;;45.20;;
57317;SDS011;43157;50.982;18.132;2023-02-07T09:55:29;130.40;;;47.90;;
57317;SDS011;43157;50.982;18.132;2023-02-07T09:58:25;156.40;;;55.90;;
57317;SDS011;43157;50.982;18.132;2023-02-07T10:01:13;144.70;;;50.80;;
57317;SDS011;43157;50.982;18.132;2023-02-07T10:03:50;274.70;;;87.90;;
57317;SDS011;43157;50.982;18.132;2023-02-07T10:06:23;147.50;;;53.90;;
57317;SDS011;43157;50.982;18.132;2023-02-07T10:08:53;213.90;;;69.30;;
57317;SDS011;43157;50.982;18.132;2023-02-07T10:27:36;107.40;;;39.90;;
57317;SDS011;43157;50.982;18.132;2023-02-07T10:32:50;125.20;;;46.50;;
57317;SDS011;43157;50.982;18.132;2023-02-07T10:35:20;94.60;;;35.90;;
57317;SDS011;43157;50.982;18.132;2023-02-07T10:37:50;103.30;;;40.00;;
57317;SDS011;43157;50.982;18.132;2023-02-07T10:40:21;106.10;;;38.10;;
57317;SDS011;43157;50.982;18.132;2023-02-07T10:42:59;126.40;;;42.60;;
57317;SDS011;43157;50.982;18.132;2023-02-07T10:45:28;108.60;;;39.00;;
57317;SDS011;43157;50.982;18.132;2023-02-07T10:47:54;106.80;;;38.50;;
57317;SDS011;43157;50.982;18.132;2023-02-07T10:50:20;88.40;;;32.60;;
57317;SDS011;43157;50.982;18.132;2023-02-07T10:52:48;88.80;;;30.50;;
57317;SDS011;43157;50.982;18.132;2023-02-07T10:55:17;106.80;;;39.60;;
57317;SDS011;43157;50.982;18.132;2023-02-07T10:57:53;73.80;;;29.40;;
57317;SDS011;43157;50.982;18.132;2023-02-07T11:00:24;95.50;;;34.60;;
57317;SDS011;43157;50.982;18.132;2023-02-07T11:03:27;97.30;;;36.90;;
57317;SDS011;43157;50.982;18.132;2023-02-07T11:06:04;96.10;;;34.70;;
57317;SDS011;43157;50.982;18.132;2023-02-07T11:08:34;91.10;;;36.50;;
57317;SDS011;43157;50.982;18.132;2023-02-07T11:13:51;98.30;;;35.40;;
57317;SDS011;43157;50.982;18.132;2023-02-07T11:16:20;95.50;;;35.50;;
57317;SDS011;43157;50.982;18.132;2023-02-07T11:18:57;93.30;;;35.40;;
57317;SDS011;43157;50.982;18.132;2023-02-07T11:24:05;87.80;;;32.00;;
57317;SDS011;43157;50.982;18.132;2023-02-07T11:26:34;77.90;;;31.40;;
57317;SDS011;43157;50.982;18.132;2023-02-07T11:31:40;82.70;;;32.30;;
57317;SDS011;43157;50.982;18.132;2023-02-07T11:37:48;80.70;;;29.80;;
57317;SDS011;43157;50.982;18.132;2023-02-07T11:40:19;77.20;;;30.60;;
57317;SDS011;43157;50.982;18.132;2023-02-07T11:42:57;83.00;;;30.40;;
57317;SDS011;43157;50.982;18.132;2023-02-07T11:45:26;91.60;;;34.70;;
57317;SDS011;43157;50.982;18.132;2023-02-07T11:47:53;100.80;;;36.50;;
57317;SDS011;43157;50.982;18.132;2023-02-07T11:50:23;92.70;;;34.50;;
57317;SDS011;43157;50.982;18.132;2023-02-07T11:52:53;84.40;;;30.10;;
57317;SDS011;43157;50.982;18.132;2023-02-07T11:55:21;82.60;;;32.30;;
57317;SDS011;43157;50.982;18.132;2023-02-07T11:57:50;105.70;;;37.70;;
57317;SDS011;43157;50.982;18.132;2023-02-07T12:05:27;89.00;;;30.80;;
57317;SDS011;43157;50.982;18.132;2023-02-07T12:07:57;76.10;;;29.70;;
57317;SDS011;43157;50.982;18.132;2023-02-07T12:10:28;89.70;;;34.20;;
57317;SDS011;43157;50.982;18.132;2023-02-07T12:15:31;78.80;;;30.80;;
57317;SDS011;43157;50.982;18.132;2023-02-07T12:24:05;70.90;;;28.10;;
57317;SDS011;43157;50.982;18.132;2023-02-07T12:26:40;64.20;;;24.20;;
57317;SDS011;43157;50.982;18.132;2023-02-07T12:32:13;136.50;;;44.30;;
57317;SDS011;43157;50.982;18.132;2023-02-07T12:37:39;63.40;;;24.80;;
57317;SDS011;43157;50.982;18.132;2023-02-07T12:43:02;75.50;;;29.20;;
57317;SDS011;43157;50.982;18.132;2023-02-07T12:53:56;53.40;;;21.40;;
57317;SDS011;43157;50.982;18.132;2023-02-07T12:56:45;52.80;;;21.40;;
57317;SDS011;43157;50.982;18.132;2023-02-07T13:09:34;40.70;;;16.70;;
57317;SDS011;43157;50.982;18.132;2023-02-07T13:19:47;43.40;;;18.00;;
57317;SDS011;43157;50.982;18.132;2023-02-07T13:25:23;35.30;;;15.00;;
57317;SDS011;43157;50.982;18.132;2023-02-07T13:27:53;41.00;;;17.70;;
57317;SDS011;43157;50.982;18.132;2023-02-07T13:30:21;40.70;;;17.00;;
57317;SDS011;43157;50.982;18.132;2023-02-07T13:32:48;36.70;;;15.30;;
57317;SDS011;43157;50.982;18.132;2023-02-07T13:35:18;32.30;;;16.30;;
57317;SDS011;43157;50.982;18.132;2023-02-07T13:43:47;35.70;;;14.60;;
57317;SDS011;43157;50.982;18.132;2023-02-07T13:49:04;35.00;;;14.90;;
57317;SDS011;43157;50.982;18.132;2023-02-07T14:00:19;41.10;;;16.60;;
57317;SDS011;43157;50.982;18.132;2023-02-07T14:02:53;43.80;;;17.40;;
57317;SDS011;43157;50.982;18.132;2023-02-07T14:05:29;35.00;;;12.70;;
57317;SDS011;43157;50.982;18.132;2023-02-07T14:07:57;34.00;;;13.50;;
57317;SDS011;43157;50.982;18.132;2023-02-07T14:10:43;34.30;;;13.30;;
57317;SDS011;43157;50.982;18.132;2023-02-07T14:18:41;30.40;;;12.50;;
57317;SDS011;43157;50.982;18.132;2023-02-07T14:34:20;33.90;;;13.70;;
57317;SDS011;43157;50.982;18.132;2023-02-07T14:36:46;28.40;;;13.10;;
57317;SDS011;43157;50.982;18.132;2023-02-07T14:41:40;28.40;;;13.30;;
57317;SDS011;43157;50.982;18.132;2023-02-07T14:44:17;28.00;;;12.30;;
57317;SDS011;43157;50.982;18.132;2023-02-07T14:46:52;29.20;;;13.30;;
57317;SDS011;43157;50.982;18.132;2023-02-07T14:52:11;40.80;;;15.20;;
57317;SDS011;43157;50.982;18.132;2023-02-07T14:57:24;41.90;;;17.70;;
57317;SDS011;43157;50.982;18.132;2023-02-07T15:02:41;34.60;;;13.80;;
57317;SDS011;43157;50.982;18.132;2023-02-07T15:07:35;30.50;;;12.40;;
57317;SDS011;43157;50.982;18.132;2023-02-07T15:10:00;37.90;;;15.00;;
57317;SDS011;43157;50.982;18.132;2023-02-07T15:12:26;35.60;;;14.50;;
57317;SDS011;43157;50.982;18.132;2023-02-07T15:14:53;36.40;;;17.50;;
57317;SDS011;43157;50.982;18.132;2023-02-07T15:17:19;32.70;;;15.50;;
57317;SDS011;43157;50.982;18.132;2023-02-07T15:19:47;31.20;;;13.60;;
57317;SDS011;43157;50.982;18.132;2023-02-07T15:22:22;33.20;;;13.40;;
57317;SDS011;43157;50.982;18.132;2023-02-07T15:24:49;26.00;;;10.10;;
57317;SDS011;43157;50.982;18.132;2023-02-07T15:27:20;28.80;;;12.80;;
57317;SDS011;43157;50.982;18.132;2023-02-07T15:32:19;30.10;;;13.00;;
57317;SDS011;43157;50.982;18.132;2023-02-07T15:34:46;32.70;;;14.20;;
57317;SDS011;43157;50.982;18.132;2023-02-07T15:37:13;38.80;;;15.70;;
57317;SDS011;43157;50.982;18.132;2023-02-07T15:39:40;36.30;;;14.70;;
57317;SDS011;43157;50.982;18.132;2023-02-07T15:42:06;35.90;;;15.00;;
57317;SDS011;43157;50.982;18.132;2023-02-07T15:44:44;36.50;;;15.00;;
57317;SDS011;43157;50.982;18.132;2023-02-07T15:50:27;36.30;;;15.40;;
57317;SDS011;43157;50.982;18.132;2023-02-07T15:52:48;33.30;;;13.20;;
57317;SDS011;43157;50.982;18.132;2023-02-07T15:57:58;37.10;;;14.80;;
57317;SDS011;43157;50.982;18.132;2023-02-07T16:00:28;37.70;;;16.10;;
57317;SDS011;43157;50.982;18.132;2023-02-07T16:02:59;40.70;;;16.40;;
57317;SDS011;43157;50.982;18.132;2023-02-07T16:05:35;36.10;;;13.50;;
57317;SDS011;43157;50.982;18.132;2023-02-07T16:08:03;40.40;;;15.20;;
57317;SDS011;43157;50.982;18.132;2023-02-07T16:10:51;39.30;;;17.10;;
57317;SDS011;43157;50.982;18.132;2023-02-07T16:13:18;37.90;;;16.40;;
57317;SDS011;43157;50.982;18.132;2023-02-07T16:15:55;38.90;;;17.40;;
57317;SDS011;43157;50.982;18.132;2023-02-07T16:18:33;33.30;;;15.70;;
57317;SDS011;43157;50.982;18.132;2023-02-07T16:21:05;38.20;;;17.60;;
57317;SDS011;43157;50.982;18.132;2023-02-07T16:23:39;35.40;;;15.90;;
57317;SDS011;43157;50.982;18.132;2023-02-07T16:26:05;39.50;;;16.90;;
57317;SDS011;43157;50.982;18.132;2023-02-07T16:28:31;43.10;;;17.50;;
57317;SDS011;43157;50.982;18.132;2023-02-07T16:30:57;31.10;;;14.40;;
57317;SDS011;43157;50.982;18.132;2023-02-07T16:33:23;40.10;;;17.10;;
57317;SDS011;43157;50.982;18.132;2023-02-07T16:35:48;49.90;;;25.30;;
57317;SDS011;43157;50.982;18.132;2023-02-07T16:38:14;49.40;;;22.80;;
57317;SDS011;43157;50.982;18.132;2023-02-07T16:40:39;52.70;;;25.40;;
57317;SDS011;43157;50.982;18.132;2023-02-07T16:43:05;43.60;;;18.50;;
57317;SDS011;43157;50.982;18.132;2023-02-07T16:45:32;42.10;;;17.30;;
57317;SDS011;43157;50.982;18.132;2023-02-07T16:47:58;33.70;;;15.20;;
57317;SDS011;43157;50.982;18.132;2023-02-07T16:50:25;38.30;;;17.10;;
57317;SDS011;43157;50.982;18.132;2023-02-07T16:52:52;33.00;;;13.60;;
57317;SDS011;43157;50.982;18.132;2023-02-07T16:55:21;33.90;;;13.40;;
57317;SDS011;43157;50.982;18.132;2023-02-07T16:57:48;49.30;;;19.50;;
57317;SDS011;43157;50.982;18.132;2023-02-07T17:00:15;41.70;;;19.00;;
57317;SDS011;43157;50.982;18.132;2023-02-07T17:02:46;54.30;;;22.90;;
57317;SDS011;43157;50.982;18.132;2023-02-07T17:05:17;37.30;;;15.50;;
57317;SDS011;43157;50.982;18.132;2023-02-07T17:07:44;44.00;;;17.70;;
57317;SDS011;43157;50.982;18.132;2023-02-07T17:10:15;34.00;;;14.10;;
57317;SDS011;43157;50.982;18.132;2023-02-07T17:12:42;52.70;;;15.00;;
57317;SDS011;43157;50.982;18.132;2023-02-07T17:15:08;30.40;;;12.10;;